Time;durP1;ratioP1;P1;durP2;ratioP2;P2;SDS_P1;SDS_P2;PMS_P1;PMS_P2;Temp;Humidity;BMP_temperature;BMP_pressure;BME280_temperature;BME280_humidity;BME280_pressure;Samples;Min_cycle;Max_cycle;Signal;HPM_P1;HPM_P2
2023/03/22 00:01:45;;;;;;;8.63;6.00;;;;;;;15.89;50.41;96417.41;5040353;28;20082;-33
2023/03/22 00:04:10;;;;;;;11.50;6.78;;;;;;;15.86;50.80;96415.56;5040489;28;20032;-32
2023/03/22 00:06:36;;;;;;;11.52;5.90;;;;;;;15.83;50.64;96416.50;5040121;28;20488;-32
2023/03/22 00:09:01;;;;;;;9.80;5.78;;;;;;;15.88;50.99;96415.88;5037276;28;20024;-33
2023/03/22 00:11:26;;;;;;;7.30;5.88;;;;;;;15.87;51.00;96433.50;5047524;28;20047;-32
2023/03/22 00:13:52;;;;;;;7.15;5.90;;;;;;;15.85;51.16;96424.25;5040365;28;20044;-33
2023/03/22 00:16:18;;;;;;;8.63;6.25;;;;;;;15.95;51.23;96418.28;5040338;28;20384;-32
2023/03/22 00:18:44;;;;;;;8.07;6.07;;;;;;;15.71;51.81;96420.19;5039698;28;20434;-32
2023/03/22 00:21:14;;;;;;;7.15;6.05;;;;;;;15.88;51.26;96412.38;5047574;28;20061;-33
2023/03/22 00:23:40;;;;;;;7.30;5.63;;;;;;;15.84;51.53;96411.78;5040509;28;20056;-33
2023/03/22 00:26:06;;;;;;;8.63;6.40;;;;;;;15.78;51.71;96419.88;5034461;28;20061;-32
2023/03/22 00:28:32;;;;;;;8.10;6.43;;;;;;;15.87;51.54;96419.81;5037676;28;20048;-33
2023/03/22 00:31:00;;;;;;;8.18;6.03;;;;;;;15.69;51.98;96414.44;5039626;28;20473;-32
2023/03/22 00:33:27;;;;;;;8.73;6.13;;;;;;;15.74;51.85;96422.00;5042393;28;20036;-34
2023/03/22 00:35:59;;;;;;;6.88;5.53;;;;;;;15.91;51.41;96420.44;5036166;28;20048;-32
2023/03/22 00:38:25;;;;;;;9.63;6.10;;;;;;;15.80;51.70;96412.72;5042687;28;20499;-32
2023/03/22 00:40:50;;;;;;;10.25;6.25;;;;;;;15.86;51.49;96407.38;5042784;28;20053;-32
2023/03/22 00:43:16;;;;;;;7.85;6.30;;;;;;;15.92;51.36;96408.28;5041698;28;20044;-32
2023/03/22 00:45:42;;;;;;;9.48;6.88;;;;;;;15.91;51.47;96411.47;5038504;28;20028;-34
2023/03/22 00:48:09;;;;;;;9.73;7.03;;;;;;;15.91;51.41;96401.28;5032616;28;20432;-32
2023/03/22 00:50:36;;;;;;;10.20;6.93;;;;;;;15.80;51.55;96404.53;5041510;28;20078;-32
2023/03/22 00:53:02;;;;;;;11.07;7.40;;;;;;;15.92;51.55;96402.81;5042270;28;20159;-33
2023/03/22 00:55:27;;;;;;;9.38;7.25;;;;;;;15.97;51.22;96399.44;5044779;28;20509;-33
2023/03/22 00:57:53;;;;;;;10.70;7.65;;;;;;;16.09;50.67;96394.97;5042068;28;20022;-32
2023/03/22 01:00:18;;;;;;;13.95;8.57;;;;;;;15.91;50.93;96398.56;5042948;28;20101;-33
2023/03/22 01:02:44;;;;;;;15.88;9.02;;;;;;;15.93;51.02;96398.84;5038566;28;20365;-32
2023/03/22 01:05:14;;;;;;;14.25;9.07;;;;;;;15.86;50.90;96398.41;5040829;28;20075;-32
2023/03/22 01:07:43;;;;;;;16.08;8.65;;;;;;;15.82;51.18;96387.66;5043794;28;20025;-33
2023/03/22 01:10:11;;;;;;;12.52;8.73;;;;;;;15.98;51.03;96392.75;5041665;28;20021;-32
2023/03/22 01:12:37;;;;;;;11.90;8.45;;;;;;;16.10;50.78;96380.81;5043116;28;20024;-32
2023/03/22 01:15:07;;;;;;;11.73;8.43;;;;;;;16.19;50.38;96380.03;5035889;28;20029;-32
2023/03/22 01:17:32;;;;;;;12.63;8.85;;;;;;;15.97;50.92;96385.00;5043149;28;20029;-32
2023/03/22 01:19:58;;;;;;;11.93;8.15;;;;;;;16.05;50.43;96394.41;5042800;28;20023;-32
2023/03/22 01:22:23;;;;;;;12.80;8.80;;;;;;;16.08;50.36;96387.97;5042822;28;20354;-32
2023/03/22 01:24:49;;;;;;;12.43;8.50;;;;;;;16.09;50.48;96384.78;5035401;28;20033;-32
2023/03/22 01:27:15;;;;;;;10.43;7.55;;;;;;;16.00;50.55;96387.56;5043318;28;20018;-33
2023/03/22 01:29:41;;;;;;;11.10;8.07;;;;;;;16.05;50.36;96386.94;5041966;28;20078;-32
2023/03/22 01:32:07;;;;;;;9.82;7.38;;;;;;;15.88;50.94;96385.78;5044039;28;20021;-34
2023/03/22 01:34:32;;;;;;;11.02;8.15;;;;;;;16.05;50.26;96386.94;5039962;28;20056;-32
2023/03/22 01:36:58;;;;;;;9.77;7.55;;;;;;;15.90;50.41;96380.63;5044989;28;20472;-32
2023/03/22 01:39:23;;;;;;;9.13;7.15;;;;;;;15.88;50.50;96380.31;5042546;28;20112;-32
2023/03/22 01:41:50;;;;;;;9.38;6.88;;;;;;;16.07;49.86;96392.69;5035611;28;20060;-32
2023/03/22 01:44:19;;;;;;;9.95;7.18;;;;;;;16.00;49.93;96390.31;5043552;28;20366;-33
2023/03/22 01:46:47;;;;;;;8.43;6.82;;;;;;;15.78;50.38;96389.78;5052956;28;20020;-33
2023/03/22 01:49:16;;;;;;;9.32;6.65;;;;;;;15.82;50.19;96398.59;5044692;28;20053;-32
2023/03/22 01:51:44;;;;;;;8.32;6.15;;;;;;;16.00;49.85;96393.03;5035195;28;20029;-33
2023/03/22 01:54:17;;;;;;;8.43;6.35;;;;;;;15.71;50.89;96396.31;5042293;28;20028;-32
2023/03/22 01:56:43;;;;;;;8.93;6.83;;;;;;;15.96;50.01;96389.69;5042499;28;20477;-32
2023/03/22 01:59:14;;;;;;;9.43;6.80;;;;;;;15.86;50.14;96382.75;5048344;28;20017;-32
2023/03/22 02:01:39;;;;;;;8.85;6.72;;;;;;;15.85;50.19;96380.47;5041647;28;20025;-33
2023/03/22 02:04:14;;;;;;;11.00;7.32;;;;;;;15.72;50.21;96383.41;5042083;28;20116;-32
2023/03/22 02:06:40;;;;;;;9.77;6.65;;;;;;;15.77;50.50;96380.81;5042476;28;20024;-32
2023/03/22 02:09:11;;;;;;;12.93;6.32;;;;;;;15.70;50.50;96385.88;5042119;28;20032;-32
2023/03/22 02:11:40;;;;;;;8.50;6.63;;;;;;;15.77;50.39;96380.06;5042003;28;20029;-32
2023/03/22 02:14:24;;;;;;;10.27;6.80;;;;;;;15.85;50.20;96386.72;5041919;28;20064;-32
2023/03/22 02:17:13;;;;;;;7.90;6.07;;;;;;;15.89;50.32;96387.31;5041035;28;20020;-33
2023/03/22 02:20:12;;;;;;;9.50;6.05;;;;;;;15.96;49.61;96376.03;5044478;28;20461;-32
2023/03/22 02:23:06;;;;;;;8.15;6.50;;;;;;;15.77;50.61;96372.63;5041773;28;20038;-33
2023/03/22 02:25:38;;;;;;;8.82;6.50;;;;;;;15.90;50.20;96379.88;5047318;28;20479;-32
2023/03/22 02:28:24;;;;;;;8.50;6.63;;;;;;;15.65;51.05;96381.03;5043491;28;20043;-32
2023/03/22 02:31:31;;;;;;;8.98;7.07;;;;;;;15.88;50.25;96377.59;5044717;28;20029;-32
2023/03/22 02:34:15;;;;;;;9.88;6.78;;;;;;;15.76;50.56;96378.56;5048780;28;20033;-32
2023/03/22 02:37:02;;;;;;;8.90;6.93;;;;;;;15.75;50.51;96377.03;5042016;28;20032;-32
2023/03/22 02:39:56;;;;;;;7.80;6.65;;;;;;;15.70;50.49;96374.94;5041416;28;20026;-32
2023/03/22 02:42:40;;;;;;;9.60;6.65;;;;;;;15.76;50.61;96382.03;5039161;28;20495;-32
2023/03/22 02:45:26;;;;;;;;;;;;;;;15.92;50.39;96378.19;5044298;28;20020;-33
2023/03/22 02:48:36;;;;;;;8.43;6.00;;;;;;;15.90;50.41;96377.88;5039373;28;19922;-32
2023/03/22 02:51:12;;;;;;;8.40;6.55;;;;;;;15.95;50.61;96379.97;5036072;28;20483;-32
2023/03/22 02:53:51;;;;;;;9.05;6.65;;;;;;;15.91;50.55;96379.41;5044079;28;20025;-32
2023/03/22 02:56:25;;;;;;;10.70;6.38;;;;;;;15.92;50.38;96380.16;5043492;28;20032;-32
2023/03/22 02:58:53;;;;;;;10.02;6.78;;;;;;;15.87;50.68;96373.34;5044979;28;20028;-32
2023/03/22 03:01:32;;;;;;;10.65;7.15;;;;;;;15.87;50.53;96372.59;5043755;28;20028;-32
2023/03/22 03:04:03;;;;;;;8.80;6.57;;;;;;;15.83;51.03;96375.47;5038223;28;20025;-33
2023/03/22 03:06:37;;;;;;;8.90;6.85;;;;;;;15.94;50.43;96372.25;5035970;28;20103;-32
2023/03/22 03:09:04;;;;;;;9.48;6.95;;;;;;;15.83;50.76;96372.75;5041028;28;20021;-33
2023/03/22 03:11:30;;;;;;;8.77;6.43;;;;;;;15.79;50.43;96372.94;5041016;28;20025;-33
2023/03/22 03:13:56;;;;;;;11.23;6.82;;;;;;;15.80;50.85;96379.16;5035770;28;20034;-32
2023/03/22 03:16:26;;;;;;;10.38;7.25;;;;;;;15.94;50.41;96378.50;5045998;28;20384;-33
2023/03/22 03:19:19;;;;;;;9.80;6.93;;;;;;;15.73;50.93;96377.50;5041616;28;20028;-32
2023/03/22 03:22:01;;;;;;;11.17;7.33;;;;;;;16.04;50.12;96368.25;5040435;28;20446;-33
2023/03/22 03:24:51;;;;;;;10.23;7.35;;;;;;;15.97;50.39;96377.53;5038012;28;20036;-34
2023/03/22 03:27:26;;;;;;;8.80;6.60;;;;;;;15.84;50.66;96373.50;5037085;28;20025;-33
2023/03/22 03:30:05;;;;;;;10.15;6.93;;;;;;;15.90;50.68;96377.13;5043453;28;20100;-32
2023/03/22 03:32:40;;;;;;;9.52;6.88;;;;;;;15.76;51.13;96376.56;5040631;28;20481;-34
2023/03/22 03:35:21;;;;;;;8.70;6.95;;;;;;;15.90;50.69;96383.38;5040552;28;20032;-32
2023/03/22 03:37:56;;;;;;;10.95;7.65;;;;;;;15.72;51.45;96381.44;5040697;28;20038;-33
2023/03/22 03:40:31;;;;;;;9.60;7.72;;;;;;;15.69;51.23;96384.34;5043331;28;20021;-32
2023/03/22 03:43:00;;;;;;;10.30;7.40;;;;;;;15.39;51.76;96384.09;5036375;28;20018;-33
2023/03/22 03:45:26;;;;;;;8.88;6.80;;;;;;;15.55;51.55;96380.28;5040604;28;20495;-32
2023/03/22 03:47:57;;;;;;;10.90;6.90;;;;;;;15.66;51.02;96377.06;5039455;28;20048;-32
2023/03/22 03:50:24;;;;;;;11.80;7.15;;;;;;;15.75;50.47;96372.31;5040921;28;20028;-33
2023/03/22 03:52:51;;;;;;;10.82;7.30;;;;;;;15.45;51.60;96379.50;5040113;28;20032;-32
2023/03/22 03:55:20;;;;;;;12.43;7.97;;;;;;;15.67;51.18;96375.84;5040392;28;20036;-32
2023/03/22 03:57:45;;;;;;;10.20;7.43;;;;;;;15.64;50.65;96376.78;5036109;28;20021;-32
2023/03/22 04:00:13;;;;;;;10.20;7.28;;;;;;;15.55;51.04;96379.53;5036960;28;20032;-33
2023/03/22 04:02:40;;;;;;;9.35;7.35;;;;;;;15.51;51.12;96378.91;5047756;28;20026;-33
2023/03/22 04:05:06;;;;;;;8.10;6.85;;;;;;;15.54;51.47;96378.00;5031750;28;20025;-32
2023/03/22 04:07:32;;;;;;;10.77;7.05;;;;;;;15.39;51.89;96383.34;5040094;28;20377;-33
2023/03/22 04:09:58;;;;;;;9.25;7.05;;;;;;;15.59;51.33;96380.13;5046968;28;20021;-32
2023/03/22 04:12:23;;;;;;;8.98;7.25;;;;;;;15.63;51.02;96378.75;5037040;28;20465;-32
2023/03/22 04:14:49;;;;;;;11.93;7.40;;;;;;;15.64;50.91;96387.69;5040257;28;20052;-33
2023/03/22 04:17:14;;;;;;;10.55;7.28;;;;;;;15.50;51.32;96388.31;5040428;28;20021;-32
2023/03/22 04:19:41;;;;;;;8.27;6.68;;;;;;;15.56;51.19;96387.28;5039876;28;20037;-32
2023/03/22 04:22:13;;;;;;;10.38;6.80;;;;;;;15.50;51.79;96386.34;5040087;28;20469;-33
2023/03/22 04:24:42;;;;;;;9.07;6.93;;;;;;;15.76;51.44;96382.03;5039758;28;20024;-33
2023/03/22 04:27:08;;;;;;;10.50;7.40;;;;;;;15.70;51.45;96380.41;5046140;28;20028;-32
2023/03/22 04:29:35;;;;;;;10.93;7.47;;;;;;;15.38;52.51;96379.84;5047016;28;20021;-33
2023/03/22 04:32:04;;;;;;;11.50;8.15;;;;;;;15.60;51.85;96384.38;5045656;28;20053;-32
2023/03/22 04:34:30;;;;;;;9.77;7.97;;;;;;;15.44;51.86;96377.25;5046604;28;20488;-33
2023/03/22 04:36:57;;;;;;;10.43;8.13;;;;;;;15.38;52.21;96382.56;5046178;28;20036;-32
2023/03/22 04:39:22;;;;;;;13.18;8.15;;;;;;;15.33;52.82;96385.19;5038583;28;20029;-33
2023/03/22 04:41:48;;;;;;;13.38;8.40;;;;;;;15.37;52.56;96381.06;5046975;28;20416;-33
2023/03/22 04:44:13;;;;;;;12.25;8.55;;;;;;;15.30;52.77;96380.63;5036803;28;20373;-33
2023/03/22 04:46:38;;;;;;;11.27;7.95;;;;;;;15.23;52.87;96384.41;5053905;28;20017;-33
2023/03/22 04:49:04;;;;;;;14.38;8.20;;;;;;;15.38;52.40;96382.56;5039233;28;20090;-33
2023/03/22 04:51:31;;;;;;;11.13;7.95;;;;;;;15.37;52.79;96386.53;5043736;28;20101;-32
2023/03/22 04:53:57;;;;;;;10.13;8.00;;;;;;;15.07;53.87;96382.03;5048950;28;20025;-33
2023/03/22 04:56:23;;;;;;;11.85;7.43;;;;;;;15.26;53.36;96380.03;5045426;28;20481;-32
2023/03/22 04:58:49;;;;;;;13.10;8.70;;;;;;;15.31;53.36;96393.84;5043696;28;20029;-32
2023/03/22 05:01:16;;;;;;;12.50;8.13;;;;;;;15.23;53.61;96389.13;5042651;28;20021;-32
2023/03/22 05:03:44;;;;;;;12.32;7.93;;;;;;;15.18;54.09;96390.50;5043105;28;20017;-32
2023/03/22 05:06:10;;;;;;;10.77;7.88;;;;;;;15.05;54.71;96392.66;5041684;28;20031;-33
2023/03/22 05:08:36;;;;;;;11.30;7.82;;;;;;;15.18;54.69;96389.75;5038154;28;20026;-32
2023/03/22 05:11:09;;;;;;;11.55;8.65;;;;;;;15.15;54.30;96385.94;5050274;28;20064;-32
2023/03/22 05:13:36;;;;;;;13.10;8.23;;;;;;;15.31;53.72;96393.84;5042433;28;20343;-32
2023/03/22 05:16:02;;;;;;;11.32;7.85;;;;;;;15.30;53.68;96394.28;5045841;28;20044;-32
2023/03/22 05:18:31;;;;;;;11.30;7.75;;;;;;;15.20;53.69;96385.34;5039855;28;20030;-33
2023/03/22 05:20:57;;;;;;;12.98;7.97;;;;;;;15.13;53.98;96393.09;5042824;28;20029;-32
2023/03/22 05:23:23;;;;;;;13.63;8.00;;;;;;;15.00;54.80;96398.72;5043154;28;20400;-32
2023/03/22 05:25:50;;;;;;;13.20;8.40;;;;;;;15.12;54.56;96392.31;5043417;28;20025;-32
2023/03/22 05:28:18;;;;;;;12.20;8.18;;;;;;;15.19;54.77;96405.69;5045944;28;20099;-32
2023/03/22 05:30:44;;;;;;;14.43;8.95;;;;;;;15.03;55.37;96406.75;5046122;28;20025;-32
2023/03/22 05:33:11;;;;;;;15.15;8.80;;;;;;;15.18;55.11;96404.16;5044491;28;20022;-32
2023/03/22 05:35:40;;;;;;;14.95;8.73;;;;;;;15.10;55.49;96411.91;5045906;28;20029;-33
2023/03/22 05:38:06;;;;;;;15.00;9.48;;;;;;;15.22;54.98;96412.94;5037386;28;20025;-32
2023/03/22 05:40:32;;;;;;;14.75;8.73;;;;;;;15.45;54.45;96419.78;5045474;28;20491;-32
2023/03/22 05:42:57;;;;;;;14.73;9.00;;;;;;;15.10;55.50;96417.38;5045624;28;20086;-33
2023/03/22 05:45:23;;;;;;;12.98;8.93;;;;;;;15.20;55.28;96420.88;5046332;28;20065;-33
2023/03/22 05:47:49;;;;;;;17.88;9.48;;;;;;;15.41;55.00;96425.38;5040902;28;20130;-32
2023/03/22 05:50:17;;;;;;;14.20;9.35;;;;;;;15.34;55.40;96425.69;5042329;28;20053;-32
2023/03/22 05:52:43;;;;;;;14.10;8.55;;;;;;;15.35;55.52;96427.22;5038311;28;20461;-33
2023/03/22 05:55:11;;;;;;;12.25;8.02;;;;;;;15.14;56.27;96422.69;5045609;28;20029;-32
2023/03/22 05:57:37;;;;;;;12.85;8.38;;;;;;;15.36;55.52;96412.31;5042776;28;20024;-32
2023/03/22 06:00:05;;;;;;;14.10;8.50;;;;;;;15.29;55.84;96415.38;5034792;28;20036;-34
2023/03/22 06:02:31;;;;;;;12.85;8.48;;;;;;;15.44;55.46;96413.56;5042628;28;20024;-33
2023/03/22 06:04:56;;;;;;;13.52;7.68;;;;;;;15.26;56.23;96421.75;5039046;28;20082;-32
2023/03/22 06:07:22;;;;;;;13.93;8.70;;;;;;;15.55;55.38;96423.28;5038364;28;20480;-32
2023/03/22 06:09:48;;;;;;;12.40;7.85;;;;;;;15.25;56.14;96417.50;5042303;28;20036;-32
2023/03/22 06:12:15;;;;;;;13.60;8.65;;;;;;;15.18;56.61;96415.09;5044796;28;20017;-34
2023/03/22 06:14:41;;;;;;;13.10;7.82;;;;;;;15.40;55.95;96423.88;5034788;28;20033;-33
2023/03/22 06:17:08;;;;;;;13.60;8.48;;;;;;;15.12;56.57;96425.09;5041955;28;20026;-32
2023/03/22 06:19:33;;;;;;;12.50;7.88;;;;;;;15.24;56.22;96426.91;5041654;28;20022;-33
2023/03/22 06:21:59;;;;;;;13.45;8.40;;;;;;;15.56;55.45;96424.78;5043067;28;20491;-32
2023/03/22 06:24:24;;;;;;;12.80;8.27;;;;;;;15.42;55.82;96424.19;5039936;28;20029;-32
2023/03/22 06:26:50;;;;;;;11.38;8.00;;;;;;;15.50;55.60;96427.34;5041577;28;20378;-32
2023/03/22 06:29:15;;;;;;;13.57;8.43;;;;;;;15.69;55.08;96428.09;5035904;28;20027;-32
2023/03/22 06:31:41;;;;;;;11.30;8.20;;;;;;;15.50;55.55;96435.53;5045234;28;20087;-32
2023/03/22 06:34:06;;;;;;;14.00;8.18;;;;;;;15.53;55.50;96439.34;5035997;28;20021;-33
2023/03/22 06:36:32;;;;;;;12.63;8.20;;;;;;;15.53;55.63;96437.38;5044626;28;20021;-32
2023/03/22 06:38:59;;;;;;;12.70;8.55;;;;;;;15.23;56.51;96438.28;5044466;28;20025;-33
2023/03/22 06:41:25;;;;;;;14.45;8.30;;;;;;;15.37;56.39;96443.91;5041534;28;20033;-32
2023/03/22 06:43:51;;;;;;;12.85;7.88;;;;;;;15.43;55.98;96444.81;5041728;28;20021;-32
2023/03/22 06:46:16;;;;;;;12.48;8.20;;;;;;;15.57;55.86;96453.66;5040691;28;20470;-33
2023/03/22 06:48:42;;;;;;;13.60;8.32;;;;;;;15.57;55.77;96450.91;5040297;28;20077;-32
2023/03/22 06:51:07;;;;;;;14.50;7.80;;;;;;;15.59;56.09;96453.91;5040857;28;20025;-34
2023/03/22 06:53:34;;;;;;;9.98;7.38;;;;;;;15.67;55.99;96449.66;5040963;28;20113;-32
2023/03/22 06:55:59;;;;;;;10.93;7.30;;;;;;;15.85;55.39;96457.81;5040949;28;20044;-33
2023/03/22 06:58:25;;;;;;;11.43;7.03;;;;;;;15.87;55.74;96449.91;5041646;28;20025;-33
2023/03/22 07:00:51;;;;;;;11.70;6.90;;;;;;;15.87;55.24;96458.13;5048414;28;20025;-33
2023/03/22 07:03:17;;;;;;;10.35;6.40;;;;;;;15.94;54.90;96454.31;5040939;28;20522;-33
2023/03/22 07:05:42;;;;;;;11.52;6.78;;;;;;;15.90;55.10;96456.44;5042715;28;20055;-32
2023/03/22 07:08:09;;;;;;;12.18;6.15;;;;;;;15.96;54.81;96462.78;5046352;28;20025;-32
2023/03/22 07:10:35;;;;;;;8.10;5.72;;;;;;;15.79;55.51;96465.91;5033821;28;20028;-34
2023/03/22 07:13:01;;;;;;;9.25;6.03;;;;;;;15.72;55.61;96460.72;5041723;28;20503;-32
2023/03/22 07:15:28;;;;;;;9.27;5.53;;;;;;;15.92;54.81;96462.22;5040855;28;20108;-32
2023/03/22 07:17:54;;;;;;;9.48;5.93;;;;;;;15.84;55.01;96467.22;5042262;28;20067;-33
2023/03/22 07:20:19;;;;;;;9.02;5.63;;;;;;;15.90;55.10;96473.63;5039093;28;20461;-33
2023/03/22 07:22:45;;;;;;;7.22;5.38;;;;;;;15.91;54.94;96469.66;5040461;28;20025;-33
2023/03/22 07:25:11;;;;;;;7.20;5.18;;;;;;;15.98;54.76;96469.31;5043917;28;20103;-32
2023/03/22 07:27:36;;;;;;;6.75;5.13;;;;;;;15.85;55.15;96476.19;5044031;28;20055;-32
2023/03/22 07:30:04;;;;;;;8.40;5.20;;;;;;;16.02;54.59;96467.19;5041524;28;20013;-33
2023/03/22 07:32:30;;;;;;;8.30;5.00;;;;;;;15.97;54.84;96469.78;5043810;28;20032;-32
2023/03/22 07:34:55;;;;;;;8.63;5.50;;;;;;;16.03;54.65;96479.66;5042907;28;20018;-32
2023/03/22 07:37:21;;;;;;;8.43;5.40;;;;;;;15.86;54.90;96475.75;5043881;28;20024;-33
2023/03/22 07:39:46;;;;;;;7.55;5.53;;;;;;;15.97;55.06;96475.25;5045186;28;20021;-33
2023/03/22 07:42:12;;;;;;;7.80;6.05;;;;;;;16.01;54.95;96487.56;5041436;28;20025;-33
2023/03/22 07:44:37;;;;;;;6.72;5.50;;;;;;;16.09;54.55;96482.50;5043530;28;20048;-33
2023/03/22 07:47:03;;;;;;;9.52;6.57;;;;;;;15.92;55.25;96473.91;5036929;28;20024;-32
2023/03/22 07:49:30;;;;;;;8.25;6.05;;;;;;;16.02;55.20;96478.13;5047305;28;20049;-32
2023/03/22 07:51:55;;;;;;;7.70;5.22;;;;;;;16.00;55.69;96477.06;5045595;28;20017;-33
2023/03/22 07:54:21;;;;;;;10.27;6.25;;;;;;;15.94;55.96;96482.44;5041909;28;20074;-32
2023/03/22 07:56:46;;;;;;;7.57;5.40;;;;;;;16.15;55.17;96484.19;5043538;28;20388;-32
2023/03/22 07:59:13;;;;;;;11.40;5.72;;;;;;;16.22;55.09;96483.06;5036779;28;20108;-33
2023/03/22 08:01:39;;;;;;;11.23;5.78;;;;;;;16.23;55.28;96481.09;5043385;28;20041;-32
2023/03/22 08:04:04;;;;;;;6.05;4.80;;;;;;;16.25;55.29;96484.13;5041729;28;20024;-33
2023/03/22 08:06:31;;;;;;;11.00;5.07;;;;;;;15.95;56.10;96483.91;5040148;28;20036;-34
2023/03/22 08:08:57;;;;;;;7.20;5.15;;;;;;;15.96;56.02;96479.97;5044491;28;20021;-32
2023/03/22 08:11:23;;;;;;;7.00;4.60;;;;;;;16.20;55.31;96482.78;5044351;28;20032;-32
2023/03/22 08:13:48;;;;;;;6.97;4.43;;;;;;;16.19;55.66;96486.00;5045063;28;20100;-33
2023/03/22 08:16:14;;;;;;;7.95;5.28;;;;;;;15.87;56.86;96490.19;5047579;28;20022;-33
2023/03/22 08:18:40;;;;;;;7.18;4.47;;;;;;;16.34;54.99;96493.06;5043979;28;20033;-33
2023/03/22 08:21:05;;;;;;;7.53;4.95;;;;;;;16.22;55.13;96498.72;5044563;28;20028;-33
2023/03/22 08:23:31;;;;;;;7.25;4.65;;;;;;;16.44;54.62;96488.31;5036746;28;20031;-32
2023/03/22 08:25:57;;;;;;;5.80;4.20;;;;;;;16.34;54.57;96492.28;5044891;28;20105;-32
2023/03/22 08:28:22;;;;;;;5.05;4.20;;;;;;;16.37;54.68;96496.84;5042915;28;20013;-32
2023/03/22 08:30:48;;;;;;;6.55;4.57;;;;;;;16.43;54.78;96495.78;5043626;28;20388;-32
2023/03/22 08:33:15;;;;;;;6.22;4.60;;;;;;;16.49;54.55;96495.88;5036901;28;20453;-32
2023/03/22 08:35:40;;;;;;;7.38;4.47;;;;;;;16.48;54.37;96494.38;5044315;28;20018;-32
2023/03/22 08:38:06;;;;;;;5.63;4.00;;;;;;;16.53;54.04;96494.50;5044028;28;20044;-32
2023/03/22 08:40:32;;;;;;;6.20;3.85;;;;;;;16.50;54.41;96500.16;5042514;28;20435;-32
2023/03/22 08:42:58;;;;;;;6.47;4.43;;;;;;;16.40;55.25;96498.69;5036074;28;20096;-33
2023/03/22 08:45:24;;;;;;;8.07;4.78;;;;;;;16.28;55.60;96505.88;5043785;28;20028;-33
2023/03/22 08:47:50;;;;;;;5.65;4.03;;;;;;;16.52;54.51;96494.97;5041240;28;20473;-33
2023/03/22 08:50:15;;;;;;;6.35;4.18;;;;;;;16.53;54.46;96502.72;5045968;28;20027;-32
2023/03/22 08:52:41;;;;;;;8.48;5.03;;;;;;;16.57;54.50;96504.53;5043682;28;20025;-33
2023/03/22 08:55:09;;;;;;;7.85;4.38;;;;;;;16.61;54.65;96503.13;5043610;28;20013;-32
2023/03/22 08:57:35;;;;;;;5.90;4.60;;;;;;;16.62;54.59;96501.94;5044567;28;20033;-33
2023/03/22 09:00:03;;;;;;;6.90;4.70;;;;;;;16.68;54.08;96504.81;5046071;28;20031;-32
2023/03/22 09:02:28;;;;;;;8.18;5.35;;;;;;;16.57;55.22;96505.28;5038328;28;20036;-33
2023/03/22 09:04:54;;;;;;;7.07;5.07;;;;;;;16.47;55.81;96501.06;5046358;28;20021;-33
2023/03/22 09:07:19;;;;;;;8.95;5.30;;;;;;;16.45;55.84;96500.75;5046114;28;20075;-33
2023/03/22 09:09:45;;;;;;;9.75;5.97;;;;;;;16.40;56.36;96485.75;5044994;28;20017;-32
2023/03/22 09:12:11;;;;;;;16.83;10.38;;;;;;;16.54;56.10;96492.53;5040916;28;20084;-33
2023/03/22 09:14:36;;;;;;;12.57;8.30;;;;;;;16.55;56.05;96496.03;5042874;28;20029;-32
2023/03/22 09:17:02;;;;;;;10.93;7.13;;;;;;;16.61;55.70;96494.91;5043629;28;20018;-33
2023/03/22 09:19:28;;;;;;;19.08;12.00;;;;;;;16.50;56.24;96494.66;5041822;28;20431;-32
2023/03/22 09:21:53;;;;;;;21.25;10.70;;;;;;;16.63;56.05;96494.50;5044131;28;20100;-32
2023/03/22 09:24:20;;;;;;;16.05;10.05;;;;;;;16.69;55.72;96498.13;5039747;28;20028;-34
2023/03/22 09:26:46;;;;;;;15.07;9.27;;;;;;;16.69;55.49;96500.84;5045642;28;20017;-32
2023/03/22 09:29:12;;;;;;;12.52;8.30;;;;;;;16.64;55.65;96496.75;5038279;28;20040;-32
2023/03/22 09:31:38;;;;;;;9.85;7.50;;;;;;;16.77;55.18;96508.25;5040355;28;20022;-32
2023/03/22 09:34:03;;;;;;;10.27;6.40;;;;;;;16.89;54.75;96503.78;5049925;28;20522;-32
2023/03/22 09:36:31;;;;;;;10.35;6.45;;;;;;;16.71;54.83;96501.88;5042806;28;20032;-32
2023/03/22 09:38:58;;;;;;;9.35;6.20;;;;;;;16.75;54.66;96499.75;5042038;28;20488;-32
2023/03/22 09:41:37;;;;;;;8.50;5.75;;;;;;;16.77;54.61;96508.25;5045275;28;20441;-32
2023/03/22 09:44:07;;;;;;;8.38;5.32;;;;;;;16.56;55.31;96509.25;5038408;28;20037;-32
2023/03/22 09:46:39;;;;;;;8.18;5.43;;;;;;;16.77;54.89;96502.78;5042537;28;20113;-32
2023/03/22 09:49:13;;;;;;;6.70;5.28;;;;;;;16.71;55.52;96498.38;5042154;28;20045;-32
2023/03/22 09:51:41;;;;;;;7.50;5.82;;;;;;;16.71;55.51;96492.91;5042345;28;20079;-32
2023/03/22 09:54:13;;;;;;;7.82;4.93;;;;;;;16.76;55.18;96490.31;5048903;28;20017;-33
2023/03/22 09:56:39;;;;;;;8.45;5.45;;;;;;;16.85;54.99;96492.22;5045733;28;20032;-34
2023/03/22 09:59:16;;;;;;;8.23;5.30;;;;;;;17.02;54.57;96484.38;5045578;28;20029;-32
2023/03/22 10:01:52;;;;;;;7.88;5.82;;;;;;;16.96;54.63;96486.97;5044035;28;20104;-32
2023/03/22 10:04:46;;;;;;;8.15;6.00;;;;;;;16.83;55.47;96489.94;5038527;28;20032;-32
2023/03/22 10:07:18;;;;;;;11.15;6.72;;;;;;;16.80;55.61;96482.69;5042121;28;20477;-32
2023/03/22 10:10:02;;;;;;;10.10;6.40;;;;;;;16.91;55.50;96484.13;5043637;28;20021;-34
2023/03/22 10:12:33;;;;;;;6.90;5.55;;;;;;;17.05;55.23;96486.94;5045394;28;20066;-33
2023/03/22 10:15:10;;;;;;;7.45;5.80;;;;;;;16.93;55.88;96484.44;5041897;28;20107;-32
2023/03/22 10:17:40;;;;;;;9.65;5.85;;;;;;;17.03;56.05;96480.41;5041170;28;20033;-33
2023/03/22 10:20:47;;;;;;;7.18;5.57;;;;;;;17.00;55.85;96486.81;5043620;28;20583;-32
2023/03/22 10:23:22;;;;;;;10.07;6.28;;;;;;;17.02;55.92;96473.41;5040686;28;20041;-33
2023/03/22 10:25:49;;;;;;;9.60;5.75;;;;;;;17.10;55.83;96480.03;5042441;28;20104;-32
2023/03/22 10:28:27;;;;;;;9.70;6.30;;;;;;;16.96;56.39;96472.53;5044567;28;20025;-33
2023/03/22 10:30:55;;;;;;;7.18;6.03;;;;;;;16.97;56.40;96463.06;5044071;28;20158;-32
2023/03/22 10:33:49;;;;;;;8.38;6.35;;;;;;;16.83;56.91;96468.03;5044831;28;20025;-32
2023/03/22 10:36:17;;;;;;;11.02;6.40;;;;;;;16.94;56.59;96467.50;5041090;28;20031;-32
2023/03/22 10:38:51;;;;;;;8.27;6.07;;;;;;;17.04;56.43;96468.97;5040088;28;20017;-32
2023/03/22 10:41:21;;;;;;;8.52;5.68;;;;;;;16.99;56.36;96471.59;5041759;28;20059;-32
2023/03/22 10:43:50;;;;;;;10.80;6.85;;;;;;;17.10;56.13;96460.84;5046596;28;20104;-32
2023/03/22 10:46:23;;;;;;;9.82;5.97;;;;;;;17.07;56.36;96462.53;5042686;28;20025;-33
2023/03/22 10:48:52;;;;;;;9.07;6.03;;;;;;;16.94;57.16;96464.03;5034152;28;20072;-32
2023/03/22 10:51:20;;;;;;;8.88;6.60;;;;;;;17.02;56.89;96465.19;5041391;28;20481;-32
2023/03/22 10:53:48;;;;;;;10.27;6.78;;;;;;;16.99;56.85;96457.91;5041158;28;20100;-33
2023/03/22 10:56:17;;;;;;;9.40;6.15;;;;;;;17.07;56.50;96459.03;5041193;28;20029;-33
2023/03/22 10:58:43;;;;;;;10.98;6.40;;;;;;;17.03;56.53;96463.97;5043967;28;20036;-32
2023/03/22 11:01:14;;;;;;;9.55;7.15;;;;;;;17.01;56.98;96469.16;5038375;28;20018;-32
2023/03/22 11:03:47;;;;;;;8.52;6.38;;;;;;;17.07;56.56;96459.03;5040476;28;20017;-32
2023/03/22 11:06:16;;;;;;;11.25;6.60;;;;;;;17.12;56.01;96461.91;5041025;28;20114;-33
2023/03/22 11:08:49;;;;;;;9.93;6.68;;;;;;;17.15;56.05;96471.19;5042401;28;20158;-32
2023/03/22 11:11:22;;;;;;;11.90;6.95;;;;;;;17.12;55.90;96453.69;5044578;28;20353;-32
2023/03/22 11:14:01;;;;;;;10.05;6.57;;;;;;;17.28;55.12;96451.75;5042140;28;20087;-32
2023/03/22 11:16:29;;;;;;;7.82;6.35;;;;;;;17.29;55.30;96459.50;5043981;28;20465;-32
2023/03/22 11:18:56;;;;;;;8.18;6.07;;;;;;;17.30;55.34;96461.00;5040991;28;20030;-32
2023/03/22 11:21:28;;;;;;;7.45;5.65;;;;;;;17.24;54.35;96463.63;5038847;28;20025;-32
2023/03/22 11:23:58;;;;;;;8.20;5.95;;;;;;;17.05;54.09;96458.78;5042393;28;20492;-32
2023/03/22 11:26:26;;;;;;;8.77;6.03;;;;;;;17.30;53.19;96460.25;5040427;28;20347;-32
2023/03/22 11:29:01;;;;;;;8.63;5.45;;;;;;;17.25;52.07;96461.66;5047661;28;20021;-33
2023/03/22 11:31:48;;;;;;;8.70;6.00;;;;;;;17.19;51.96;96452.56;5037720;28;20021;-32
2023/03/22 11:34:19;;;;;;;10.10;5.10;;;;;;;17.27;50.76;96450.22;5035969;28;20056;-32
2023/03/22 11:36:51;;;;;;;7.95;5.10;;;;;;;17.18;51.04;96453.81;5038307;28;20021;-32
2023/03/22 11:39:17;;;;;;;7.38;4.38;;;;;;;17.14;50.32;96453.97;5041895;28;20473;-33